createdAt,value
2022-10-11T00:00:09.372Z,3.61
2022-10-11T00:02:35.888Z,3.75
2022-10-11T00:05:02.434Z,3.89
2022-10-11T00:07:28.966Z,3.72
2022-10-11T00:09:55.555Z,3.67
2022-10-11T00:12:22.261Z,3.65
2022-10-11T00:14:48.862Z,3.95
2022-10-11T00:17:15.400Z,3.81
2022-10-11T00:19:41.921Z,3.85
2022-10-11T00:22:08.450Z,3.86
2022-10-11T00:24:35.062Z,3.69
2022-10-11T00:27:01.685Z,3.61
2022-10-11T00:29:28.235Z,3.78
2022-10-11T00:31:54.799Z,3.32
2022-10-11T00:34:21.355Z,3.55
2022-10-11T00:36:48.267Z,3.46
2022-10-11T00:39:14.810Z,3.33
2022-10-11T00:41:41.598Z,3.46
2022-10-11T00:44:13.775Z,3.55
2022-10-11T00:46:45.791Z,3.64
2022-10-11T00:49:19.778Z,3.73
2022-10-11T00:51:53.075Z,3.49
2022-10-11T00:54:25.881Z,3.62
2022-10-11T00:57:06.875Z,3.56
2022-10-11T00:59:39.665Z,3.35
2022-10-11T01:02:08.575Z,3.37
2022-10-11T01:04:35.079Z,3.58
2022-10-11T01:07:02.481Z,3.43
2022-10-11T01:09:29.771Z,3.38
2022-10-11T01:12:00.847Z,3.34
2022-10-11T01:14:46.596Z,3.10
2022-10-11T01:17:30.231Z,3.34
2022-10-11T01:20:14.909Z,3.44
2022-10-11T01:23:26.081Z,3.47
2022-10-11T01:26:26.859Z,3.64
2022-10-11T01:29:29.062Z,3.64
2022-10-11T01:32:25.937Z,3.41
2022-10-11T01:35:07.191Z,3.21
2022-10-11T01:37:43.429Z,3.30
2022-10-11T01:40:22.721Z,3.35
2022-10-11T01:42:50.496Z,3.33
2022-10-11T01:45:19.556Z,3.13
2022-10-11T01:47:46.157Z,3.40
2022-10-11T01:50:42.309Z,3.36
2022-10-11T01:53:26.626Z,3.30
2022-10-11T01:56:14.480Z,3.23
2022-10-11T01:59:15.219Z,3.08
2022-10-11T02:02:03.226Z,3.29
2022-10-11T02:04:32.725Z,3.15
2022-10-11T02:07:07.841Z,3.01
2022-10-11T02:09:44.461Z,3.33
2022-10-11T02:12:15.733Z,3.11
2022-10-11T02:14:48.789Z,3.16
2022-10-11T02:17:23.253Z,3.00
2022-10-11T02:19:56.603Z,3.03
2022-10-11T02:22:33.681Z,2.91
2022-10-11T02:25:08.724Z,3.09
2022-10-11T02:27:40.096Z,3.04
2022-10-11T02:30:08.982Z,3.14
2022-10-11T02:32:41.968Z,3.32
2022-10-11T02:35:10.137Z,2.97
2022-10-11T02:37:41.474Z,2.89
2022-10-11T02:40:35.354Z,3.03
2022-10-11T02:43:11.899Z,2.76
2022-10-11T02:45:48.190Z,2.91
2022-10-11T02:48:15.932Z,2.94
2022-10-11T02:50:43.261Z,2.77
2022-10-11T02:53:10.181Z,2.76
2022-10-11T02:55:37.309Z,2.80
2022-10-11T02:58:03.836Z,2.96
2022-10-11T03:00:30.660Z,2.99
2022-10-11T03:02:57.247Z,2.97
2022-10-11T03:05:23.955Z,2.93
2022-10-11T03:07:50.495Z,2.84
2022-10-11T03:10:19.493Z,2.89
2022-10-11T03:12:46.007Z,3.04
2022-10-11T03:15:12.534Z,2.95
2022-10-11T03:17:39.048Z,2.69
2022-10-11T03:20:06.378Z,2.66
2022-10-11T03:22:32.987Z,2.83
2022-10-11T03:25:03.603Z,2.74
2022-10-11T03:27:31.137Z,2.94
2022-10-11T03:29:57.625Z,2.83
2022-10-11T03:32:24.138Z,2.72
2022-10-11T03:34:50.715Z,2.89
2022-10-11T03:37:17.361Z,2.90
2022-10-11T03:39:43.867Z,2.65
2022-10-11T03:42:10.473Z,2.78
2022-10-11T03:44:37.026Z,2.97
2022-10-11T03:47:03.614Z,2.95
2022-10-11T03:49:30.270Z,2.89
2022-10-11T03:51:56.807Z,2.88
2022-10-11T03:54:23.325Z,2.91
2022-10-11T03:56:49.944Z,2.97
2022-10-11T03:59:16.591Z,3.03
2022-10-11T04:01:43.284Z,3.07
2022-10-11T04:04:10.037Z,3.08
2022-10-11T04:06:36.572Z,3.06
2022-10-11T04:09:03.382Z,3.07
2022-10-11T04:11:29.918Z,3.38
2022-10-11T04:13:56.409Z,3.21
2022-10-11T04:16:23.084Z,3.18
2022-10-11T04:18:49.617Z,3.23
2022-10-11T04:21:16.152Z,3.31
2022-10-11T04:23:42.700Z,3.34
2022-10-11T04:26:09.267Z,3.31
2022-10-11T04:28:36.103Z,3.02
2022-10-11T04:31:02.859Z,3.03
2022-10-11T04:33:29.748Z,3.22
2022-10-11T04:35:57.090Z,3.33
2022-10-11T04:38:24.033Z,3.40
2022-10-11T04:40:50.613Z,3.42
2022-10-11T04:43:18.329Z,3.42
2022-10-11T04:45:45.019Z,3.56
2022-10-11T04:48:11.539Z,3.26
2022-10-11T04:50:38.154Z,3.16
2022-10-11T04:53:07.938Z,3.36
2022-10-11T04:55:34.455Z,3.31
2022-10-11T04:58:01.159Z,3.07
2022-10-11T05:00:27.757Z,3.11
2022-10-11T05:02:54.296Z,3.15
2022-10-11T05:05:20.880Z,3.28
2022-10-11T05:07:47.443Z,3.68
2022-10-11T05:10:14.091Z,3.34
2022-10-11T05:12:40.790Z,3.28
2022-10-11T05:15:08.017Z,3.20
2022-10-11T05:17:34.522Z,3.21
2022-10-11T05:20:01.011Z,3.61
2022-10-11T05:22:27.576Z,3.39
2022-10-11T05:24:54.112Z,3.46
2022-10-11T05:27:20.607Z,3.14
2022-10-11T05:29:47.124Z,3.43
2022-10-11T05:32:13.621Z,3.64
2022-10-11T05:34:40.110Z,3.73
2022-10-11T05:37:06.626Z,3.58
2022-10-11T05:39:33.092Z,3.44
2022-10-11T05:41:59.614Z,3.47
2022-10-11T05:44:26.148Z,3.36
2022-10-11T05:46:52.689Z,3.42
2022-10-11T05:49:19.194Z,3.53
2022-10-11T05:51:45.764Z,3.71
2022-10-11T05:54:12.313Z,3.57
2022-10-11T05:56:38.883Z,3.74
2022-10-11T05:59:05.414Z,3.74
2022-10-11T06:01:32.066Z,3.82
2022-10-11T06:03:58.736Z,4.21
2022-10-11T06:06:25.366Z,4.10
2022-10-11T06:08:52.067Z,4.06
2022-10-11T06:11:22.679Z,4.52
2022-10-11T06:13:49.392Z,4.12
2022-10-11T06:16:16.033Z,4.29
2022-10-11T06:18:42.596Z,4.35
2022-10-11T06:21:09.172Z,4.12
2022-10-11T06:23:35.778Z,4.10
2022-10-11T06:26:06.643Z,3.96
2022-10-11T06:28:35.541Z,4.03
2022-10-11T06:31:05.191Z,4.22
2022-10-11T06:33:31.989Z,4.00
2022-10-11T06:36:09.662Z,4.45
2022-10-11T06:38:39.784Z,4.67
2022-10-11T06:41:10.567Z,4.43
2022-10-11T06:43:37.121Z,4.49
2022-10-11T06:46:04.313Z,4.37
2022-10-11T06:48:31.079Z,4.12
2022-10-11T06:51:01.474Z,4.30
2022-10-11T06:53:28.153Z,4.46
2022-10-11T06:56:02.364Z,4.47
2022-10-11T06:58:29.271Z,4.56
2022-10-11T07:01:10.607Z,4.56
2022-10-11T07:03:37.724Z,4.97
2022-10-11T07:06:08.575Z,4.86
2022-10-11T07:08:36.807Z,4.36
2022-10-11T07:11:09.591Z,4.43
2022-10-11T07:13:37.667Z,4.53
2022-10-11T07:16:08.244Z,4.44
2022-10-11T07:18:35.119Z,4.34
2022-10-11T07:21:07.421Z,4.24
2022-10-11T07:23:34.364Z,4.13
2022-10-11T07:26:01.132Z,4.29
2022-10-11T07:28:28.458Z,4.30
2022-10-11T07:30:55.144Z,4.24
2022-10-11T07:33:21.794Z,4.36
2022-10-11T07:35:49.549Z,4.03
2022-10-11T07:38:16.757Z,3.89
2022-10-11T07:40:45.998Z,4.65
2022-10-11T07:43:13.519Z,4.67
2022-10-11T07:45:41.953Z,4.42
2022-10-11T07:48:09.074Z,4.39
2022-10-11T07:50:36.045Z,5.56
2022-10-11T07:53:03.117Z,4.54
2022-10-11T07:55:33.787Z,4.60
2022-10-11T07:58:00.297Z,5.72
2022-10-11T08:00:26.793Z,5.52
2022-10-11T08:02:53.317Z,5.01
2022-10-11T08:05:19.856Z,5.15
2022-10-11T08:07:46.379Z,4.78
2022-10-11T08:10:12.914Z,4.31
2022-10-11T08:12:39.547Z,5.04
2022-10-11T08:15:06.571Z,5.23
2022-10-11T08:17:33.192Z,4.89
2022-10-11T08:19:59.791Z,5.57
2022-10-11T08:22:26.341Z,5.34
2022-10-11T08:24:52.887Z,4.75
2022-10-11T08:27:21.431Z,4.50
2022-10-11T08:29:48.163Z,6.45
2022-10-11T08:32:14.865Z,7.89
2022-10-11T08:34:41.390Z,5.12
2022-10-11T08:37:08.164Z,5.69
2022-10-11T08:39:34.886Z,5.62
2022-10-11T08:42:23.364Z,4.73
2022-10-11T08:45:10.631Z,4.81
2022-10-11T08:47:44.806Z,4.77
2022-10-11T08:50:19.597Z,4.89
2022-10-11T08:53:10.967Z,5.15
2022-10-11T08:55:52.343Z,5.03
2022-10-11T08:58:25.709Z,5.20
2022-10-11T09:00:56.367Z,5.20
2022-10-11T09:03:37.055Z,5.09
2022-10-11T09:06:25.368Z,4.78
2022-10-11T09:09:16.157Z,4.96
2022-10-11T09:12:04.218Z,4.73
2022-10-11T09:14:38.939Z,4.96
2022-10-11T09:17:33.858Z,5.40
2022-10-11T09:20:24.138Z,5.62
2022-10-11T09:23:13.105Z,5.56
2022-10-11T09:25:54.845Z,4.98
2022-10-11T09:28:35.493Z,5.34
2022-10-11T09:31:02.312Z,5.55
2022-10-11T09:33:35.347Z,5.50
2022-10-11T09:36:16.256Z,5.60
2022-10-11T09:39:06.478Z,5.94
2022-10-11T09:41:51.383Z,5.47
2022-10-11T09:44:28.288Z,5.81
2022-10-11T09:46:56.899Z,5.84
2022-10-11T09:49:37.141Z,6.77
2022-10-11T09:52:11.193Z,6.89
2022-10-11T09:54:40.016Z,6.25
2022-10-11T09:57:21.312Z,6.49
2022-10-11T10:00:18.745Z,6.57
2022-10-11T10:02:54.477Z,6.79
2022-10-11T10:05:32.839Z,7.71
2022-10-11T10:08:04.076Z,7.23
2022-10-11T10:10:31.147Z,7.10
2022-10-11T10:13:03.890Z,7.39
2022-10-11T10:15:47.415Z,7.48
2022-10-11T10:18:22.844Z,7.24
2022-10-11T10:20:58.802Z,7.64
2022-10-11T10:23:32.434Z,7.17
2022-10-11T10:26:17.478Z,7.30
2022-10-11T10:29:03.727Z,8.09
2022-10-11T10:31:49.196Z,7.14
2022-10-11T10:34:46.663Z,7.99
2022-10-11T10:37:26.626Z,7.53
2022-10-11T10:40:13.050Z,8.10
2022-10-11T10:42:40.007Z,7.53
2022-10-11T10:45:18.643Z,7.18
2022-10-11T10:48:10.668Z,7.01
2022-10-11T10:51:01.408Z,7.55
2022-10-11T10:53:38.106Z,7.77
2022-10-11T10:56:12.015Z,8.29
2022-10-11T10:58:54.253Z,8.15
2022-10-11T11:01:30.521Z,7.69
2022-10-11T11:04:24.725Z,7.66
2022-10-11T11:07:11.619Z,8.46
2022-10-11T11:09:52.797Z,8.32
2022-10-11T11:12:22.303Z,7.98
2022-10-11T11:15:04.227Z,8.19
2022-10-11T11:17:45.162Z,8.38
2022-10-11T11:20:23.788Z,8.14
2022-10-11T11:23:32.047Z,8.35
2022-10-11T11:26:20.406Z,9.43
2022-10-11T11:29:22.354Z,9.08
2022-10-11T11:32:30.900Z,9.23
2022-10-11T11:35:09.611Z,8.80
2022-10-11T11:37:41.376Z,9.05
2022-10-11T11:40:16.717Z,8.35
2022-10-11T11:42:51.469Z,8.70
2022-10-11T11:45:30.842Z,9.49
2022-10-11T11:48:13.193Z,9.15
2022-10-11T11:50:46.260Z,8.90
2022-10-11T11:53:18.735Z,9.24
2022-10-11T11:55:50.644Z,9.40
2022-10-11T11:58:50.073Z,9.32
2022-10-11T12:01:47.255Z,9.18
2022-10-11T12:04:31.343Z,9.30
2022-10-11T12:07:17.738Z,8.96
2022-10-11T12:09:49.788Z,9.21
2022-10-11T12:12:37.243Z,9.58
2022-10-11T12:15:19.600Z,10.04
2022-10-11T12:17:54.988Z,9.78
2022-10-11T12:20:26.131Z,9.92
2022-10-11T12:22:56.082Z,9.84
2022-10-11T12:25:22.546Z,9.45
2022-10-11T12:27:53.619Z,9.96
2022-10-11T12:30:45.048Z,10.04
2022-10-11T12:33:15.932Z,10.46
2022-10-11T12:35:54.589Z,10.60
2022-10-11T12:38:28.353Z,9.92
2022-10-11T12:40:57.215Z,9.70
2022-10-11T12:43:55.122Z,9.61
2022-10-11T12:46:30.395Z,9.64
2022-10-11T12:49:26.811Z,10.11
2022-10-11T12:52:17.803Z,10.60
2022-10-11T12:54:44.328Z,10.28
2022-10-11T12:57:32.430Z,10.50
2022-10-11T13:00:28.508Z,11.33
2022-10-11T13:03:05.224Z,11.10
2022-10-11T13:05:48.680Z,11.37
2022-10-11T13:08:32.387Z,11.68
2022-10-11T13:11:03.414Z,11.84
2022-10-11T13:13:40.257Z,12.27
2022-10-11T13:16:13.306Z,12.58
2022-10-11T13:18:45.610Z,12.51
2022-10-11T13:21:25.620Z,12.15
2022-10-11T13:24:00.142Z,12.09
2022-10-11T13:26:30.289Z,12.56
2022-10-11T13:28:58.317Z,12.97
2022-10-11T13:31:25.081Z,12.90
2022-10-11T13:33:55.400Z,13.61
2022-10-11T13:36:26.094Z,13.26
2022-10-11T13:38:59.058Z,13.85
2022-10-11T13:41:31.972Z,13.60
2022-10-11T13:44:00.377Z,13.06
2022-10-11T13:46:30.601Z,13.59
2022-10-11T13:49:31.150Z,13.16
2022-10-11T13:52:03.056Z,12.74
2022-10-11T13:54:55.546Z,14.14
2022-10-11T13:57:31.478Z,12.86
2022-10-11T13:59:58.268Z,12.30
2022-10-11T14:02:29.260Z,12.19
2022-10-11T14:04:55.738Z,12.17
2022-10-11T14:07:33.085Z,12.02
2022-10-11T14:09:59.807Z,11.17
2022-10-11T14:12:40.480Z,11.68
2022-10-11T14:15:33.591Z,11.94
2022-10-11T14:18:01.962Z,11.39
2022-10-11T14:20:38.989Z,12.32
2022-10-11T14:23:07.011Z,11.03
2022-10-11T14:25:34.500Z,10.32
2022-10-11T14:28:01.099Z,10.35
2022-10-11T14:30:28.645Z,10.57
2022-10-11T14:32:59.349Z,11.50
2022-10-11T14:35:29.658Z,11.69
2022-10-11T14:37:56.241Z,11.50
2022-10-11T14:40:25.886Z,11.50
2022-10-11T14:42:52.477Z,14.95
2022-10-11T14:45:19.944Z,13.04
2022-10-11T14:47:46.678Z,11.45
2022-10-11T14:50:27.449Z,9.98
2022-10-11T14:52:54.717Z,9.55
2022-10-11T14:55:21.224Z,8.56
2022-10-11T14:57:55.215Z,8.75
2022-10-11T15:00:26.077Z,8.20
2022-10-11T15:02:53.296Z,7.10
2022-10-11T15:05:21.150Z,6.88
2022-10-11T15:07:48.549Z,6.72
2022-10-11T15:10:22.657Z,7.51
2022-10-11T15:12:53.924Z,7.57
2022-10-11T15:15:23.763Z,7.45
2022-10-11T15:17:53.776Z,7.33
2022-10-11T15:20:27.778Z,8.38
2022-10-11T15:23:00.028Z,8.11
2022-10-11T15:25:27.990Z,8.64
2022-10-11T15:27:54.637Z,8.30
2022-10-11T15:30:25.153Z,8.67
2022-10-11T15:32:52.091Z,7.77
2022-10-11T15:35:19.552Z,7.73
2022-10-11T15:37:46.718Z,7.31
2022-10-11T15:40:23.719Z,6.95
2022-10-11T15:42:51.509Z,7.40
2022-10-11T15:45:19.431Z,7.20
2022-10-11T15:47:46.121Z,7.14
2022-10-11T15:50:12.536Z,7.53
2022-10-11T15:52:39.162Z,6.69
2022-10-11T15:55:05.782Z,6.60
2022-10-11T15:57:32.233Z,8.03
2022-10-11T15:59:58.712Z,7.97
2022-10-11T16:02:25.301Z,8.25
2022-10-11T16:04:53.072Z,8.53
2022-10-11T16:07:19.557Z,10.14
2022-10-11T16:09:46.027Z,9.69
2022-10-11T16:12:12.605Z,9.46
2022-10-11T16:14:42.598Z,10.23
2022-10-11T16:17:11.533Z,8.29
2022-10-11T16:19:38.004Z,9.32
2022-10-11T16:22:04.444Z,8.78
2022-10-11T16:24:30.983Z,6.02
2022-10-11T16:26:57.444Z,4.94
2022-10-11T16:29:24.053Z,5.43
2022-10-11T16:31:50.523Z,5.47
2022-10-11T16:34:17.122Z,5.57
2022-10-11T16:36:43.824Z,5.88
2022-10-11T16:39:16.596Z,5.96
2022-10-11T16:41:43.100Z,5.75
2022-10-11T16:44:14.962Z,5.49
2022-10-11T16:46:42.147Z,5.64
2022-10-11T16:49:08.741Z,5.20
2022-10-11T16:51:35.235Z,5.64
2022-10-11T16:54:01.881Z,5.77
2022-10-11T16:56:28.636Z,5.51
2022-10-11T16:58:55.914Z,5.47
2022-10-11T17:01:22.967Z,5.69
2022-10-11T17:03:50.230Z,5.84
2022-10-11T17:06:17.123Z,5.85
2022-10-11T17:08:43.791Z,6.27
2022-10-11T17:11:10.556Z,5.79
2022-10-11T17:13:37.017Z,5.98
2022-10-11T17:16:04.063Z,5.56
2022-10-11T17:18:32.358Z,6.28
2022-10-11T17:21:07.934Z,6.50
2022-10-11T17:23:35.494Z,6.52
2022-10-11T17:26:10.077Z,6.42
2022-10-11T17:28:38.969Z,5.80
2022-10-11T17:31:05.937Z,5.92
2022-10-11T17:33:33.120Z,6.20
2022-10-11T17:36:00.598Z,6.47
2022-10-11T17:38:27.654Z,6.43
2022-10-11T17:41:01.452Z,6.45
2022-10-11T17:43:28.576Z,6.73
2022-10-11T17:45:59.269Z,6.51
2022-10-11T17:48:28.067Z,6.42
2022-10-11T17:50:55.014Z,6.88
2022-10-11T17:53:21.660Z,6.86
2022-10-11T17:55:48.166Z,6.84
2022-10-11T17:58:14.659Z,7.09
2022-10-11T18:00:41.186Z,7.26
2022-10-11T18:03:07.660Z,7.26
2022-10-11T18:05:39.861Z,7.03
2022-10-11T18:08:07.211Z,7.42
2022-10-11T18:10:35.334Z,7.63
2022-10-11T18:13:06.327Z,7.06
2022-10-11T18:15:33.222Z,7.57
2022-10-11T18:18:00.023Z,7.39
2022-10-11T18:20:26.633Z,8.07
2022-10-11T18:22:53.190Z,8.98
2022-10-11T18:25:20.208Z,8.57
2022-10-11T18:27:46.658Z,8.84
2022-10-11T18:30:19.701Z,8.68
2022-10-11T18:32:46.201Z,7.98
2022-10-11T18:35:12.723Z,7.75
2022-10-11T18:37:39.216Z,7.63
2022-10-11T18:40:06.163Z,7.41
2022-10-11T18:42:32.625Z,7.06
2022-10-11T18:44:59.136Z,7.65
2022-10-11T18:47:25.611Z,7.49
2022-10-11T18:49:52.129Z,7.58
2022-10-11T18:52:18.598Z,7.43
2022-10-11T18:54:45.149Z,7.47
2022-10-11T18:57:11.716Z,7.30
2022-10-11T18:59:38.158Z,6.87
2022-10-11T19:02:04.666Z,7.13
2022-10-11T19:04:31.146Z,7.15
2022-10-11T19:06:57.636Z,6.69
2022-10-11T19:09:24.207Z,6.61
2022-10-11T19:11:52.860Z,6.59
2022-10-11T19:14:22.043Z,6.62
2022-10-11T19:16:50.304Z,6.51
2022-10-11T19:19:19.708Z,6.68
2022-10-11T19:21:46.193Z,6.97
2022-10-11T19:24:12.667Z,6.74
2022-10-11T19:26:40.637Z,7.01
2022-10-11T19:29:08.485Z,7.50
2022-10-11T19:31:40.440Z,7.47
2022-10-11T19:34:06.928Z,7.72
2022-10-11T19:36:36.590Z,7.96
2022-10-11T19:39:05.327Z,8.08
2022-10-11T19:41:32.713Z,8.26
2022-10-11T19:43:59.193Z,8.21
2022-10-11T19:46:44.855Z,8.01
2022-10-11T19:49:14.362Z,8.39
2022-10-11T19:51:41.385Z,8.17
2022-10-11T19:54:11.531Z,8.33
2022-10-11T19:56:38.002Z,8.22
2022-10-11T19:59:04.862Z,7.85
2022-10-11T20:01:31.791Z,7.47
2022-10-11T20:04:07.035Z,7.26
2022-10-11T20:06:38.475Z,7.14
2022-10-11T20:09:28.114Z,7.32
2022-10-11T20:11:53.581Z,7.54
2022-10-11T20:14:20.446Z,7.35
2022-10-11T20:16:50.035Z,6.88
2022-10-11T20:19:17.280Z,7.05
2022-10-11T20:21:44.150Z,6.83
2022-10-11T20:24:10.616Z,6.76
2022-10-11T20:26:37.091Z,7.15
2022-10-11T20:29:03.560Z,7.07
2022-10-11T20:31:32.708Z,7.03
2022-10-11T20:34:01.571Z,6.97
2022-10-11T20:36:29.910Z,7.19
2022-10-11T20:38:58.021Z,7.68
2022-10-11T20:41:27.586Z,7.73
2022-10-11T20:43:56.581Z,7.77
2022-10-11T20:46:26.089Z,7.65
2022-10-11T20:49:01.143Z,7.55
2022-10-11T20:51:30.060Z,7.69
2022-10-11T20:53:56.716Z,7.92
2022-10-11T20:56:23.797Z,7.85
2022-10-11T20:58:59.714Z,7.70
2022-10-11T21:01:31.552Z,8.02
2022-10-11T21:03:59.757Z,7.91
2022-10-11T21:06:27.206Z,7.95
2022-10-11T21:08:58.214Z,8.28
2022-10-11T21:11:26.621Z,8.30
2022-10-11T21:13:58.348Z,8.72
2022-10-11T21:16:28.169Z,8.44
2022-10-11T21:18:57.119Z,8.50
2022-10-11T21:21:24.256Z,7.87
2022-10-11T21:23:55.495Z,8.26
2022-10-11T21:26:22.133Z,7.79
2022-10-11T21:28:49.164Z,8.15
2022-10-11T21:31:18.184Z,8.29
2022-10-11T21:33:44.768Z,8.66
2022-10-11T21:36:17.634Z,8.97
2022-10-11T21:38:44.739Z,8.73
2022-10-11T21:41:17.487Z,9.29
2022-10-11T21:43:44.362Z,8.96
2022-10-11T21:46:16.311Z,8.94
2022-10-11T21:48:42.811Z,9.23
2022-10-11T21:51:15.434Z,8.88
2022-10-11T21:53:41.925Z,9.33
2022-10-11T21:56:08.906Z,9.23
2022-10-11T21:58:35.413Z,9.33
2022-10-11T22:01:01.991Z,9.75
2022-10-11T22:03:28.514Z,9.48
2022-10-11T22:05:54.980Z,10.06
2022-10-11T22:08:22.321Z,10.14
2022-10-11T22:10:54.602Z,9.88
2022-10-11T22:13:21.078Z,10.04
2022-10-11T22:15:47.546Z,9.60
2022-10-11T22:18:14.086Z,9.77
2022-10-11T22:20:40.735Z,9.85
2022-10-11T22:23:07.344Z,9.85
2022-10-11T22:25:39.810Z,9.77
2022-10-11T22:28:06.679Z,9.71
2022-10-11T22:30:33.262Z,9.43
2022-10-11T22:32:59.796Z,9.31
2022-10-11T22:35:26.589Z,9.55
2022-10-11T22:37:53.226Z,9.20
2022-10-11T22:40:20.556Z,9.92
2022-10-11T22:42:47.193Z,10.38
2022-10-11T22:45:13.659Z,10.26
2022-10-11T22:47:40.190Z,10.53
2022-10-11T22:50:06.839Z,11.15
2022-10-11T22:52:33.332Z,11.56
2022-10-11T22:55:03.026Z,11.69
2022-10-11T22:57:29.523Z,11.79
2022-10-11T22:59:58.591Z,11.65
2022-10-11T23:02:25.232Z,11.68
2022-10-11T23:04:54.030Z,12.51
2022-10-11T23:07:20.511Z,12.73
2022-10-11T23:09:48.928Z,12.55
2022-10-11T23:12:15.433Z,13.35
2022-10-11T23:14:42.074Z,12.95
2022-10-11T23:17:08.609Z,12.80
2022-10-11T23:19:35.118Z,13.00
2022-10-11T23:22:01.578Z,13.15
2022-10-11T23:24:28.036Z,13.36
2022-10-11T23:26:54.670Z,12.91
2022-10-11T23:29:21.130Z,13.03
2022-10-11T23:31:47.619Z,12.88
2022-10-11T23:34:14.205Z,13.54
2022-10-11T23:36:41.225Z,13.24
2022-10-11T23:39:07.746Z,13.22
2022-10-11T23:41:34.215Z,13.21
2022-10-11T23:44:00.678Z,13.33
2022-10-11T23:46:27.297Z,13.52
2022-10-11T23:48:53.794Z,12.75
2022-10-11T23:51:20.292Z,12.89
2022-10-11T23:53:46.966Z,13.34
2022-10-11T23:56:15.439Z,13.09
2022-10-11T23:58:41.939Z,13.11
